createdAt,value
2018-04-23T00:00:00.242Z,0.00
2018-04-23T00:01:00.433Z,0.00
2018-04-23T00:02:00.622Z,0.00
2018-04-23T00:03:00.813Z,0.00
2018-04-23T00:04:01.004Z,0.00
2018-04-23T00:05:01.191Z,0.00
2018-04-23T00:06:01.382Z,0.00
2018-04-23T00:07:01.570Z,0.00
2018-04-23T00:08:01.761Z,0.00
2018-04-23T00:09:01.954Z,0.00
2018-04-23T00:10:02.141Z,0.00
2018-04-23T00:11:02.332Z,0.00
2018-04-23T00:12:02.522Z,0.00
2018-04-23T00:13:02.712Z,0.00
2018-04-23T00:14:02.907Z,0.00
2018-04-23T00:15:03.090Z,0.00
2018-04-23T00:16:03.281Z,0.00
2018-04-23T00:17:03.471Z,0.00
2018-04-23T00:18:03.658Z,0.00
2018-04-23T00:19:03.850Z,0.00
2018-04-23T00:20:04.038Z,0.00
2018-04-23T00:21:04.229Z,0.00
2018-04-23T00:22:04.417Z,0.00
2018-04-23T00:23:04.649Z,0.00
2018-04-23T00:24:04.802Z,0.00
2018-04-23T00:25:04.992Z,0.00
2018-04-23T00:26:05.176Z,0.00
2018-04-23T00:27:05.494Z,0.00
2018-04-23T00:28:05.560Z,0.00
2018-04-23T00:29:05.751Z,0.00
2018-04-23T00:30:05.941Z,0.00
2018-04-23T00:31:06.131Z,0.00
2018-04-23T00:32:06.321Z,0.00
2018-04-23T00:33:06.511Z,0.00
2018-04-23T00:34:06.700Z,0.00
2018-04-23T00:35:06.891Z,0.00
2018-04-23T00:36:07.080Z,0.00
2018-04-23T00:37:07.271Z,0.00
2018-04-23T00:38:07.458Z,0.00
2018-04-23T00:39:07.646Z,0.00
2018-04-23T00:40:07.907Z,0.00
2018-04-23T00:41:08.026Z,0.00
2018-04-23T00:42:08.218Z,0.00
2018-04-23T00:43:08.405Z,0.00
2018-04-23T00:44:08.594Z,0.00
2018-04-23T00:45:08.788Z,0.00
2018-04-23T00:46:08.975Z,0.00
2018-04-23T00:47:09.168Z,0.00
2018-04-23T00:48:09.354Z,0.00
2018-04-23T00:49:09.543Z,0.00
2018-04-23T00:50:09.732Z,0.00
2018-04-23T00:51:09.921Z,0.00
2018-04-23T00:52:10.112Z,0.00
2018-04-23T00:53:10.300Z,0.00
2018-04-23T00:54:10.492Z,0.00
2018-04-23T00:55:10.683Z,0.00
2018-04-23T00:56:10.871Z,0.00
2018-04-23T00:57:11.063Z,0.00
2018-04-23T00:58:11.250Z,0.00
2018-04-23T00:59:11.439Z,0.00
2018-04-23T01:00:11.633Z,0.00
2018-04-23T01:01:11.817Z,0.00
2018-04-23T01:02:12.006Z,0.00
2018-04-23T01:03:12.200Z,0.00
2018-04-23T01:04:12.387Z,0.00
2018-04-23T01:05:12.574Z,0.00
2018-04-23T01:06:12.763Z,0.00
2018-04-23T01:07:12.956Z,0.00
2018-04-23T01:08:13.141Z,0.00
2018-04-23T01:09:13.333Z,0.00
2018-04-23T01:10:13.520Z,0.00
2018-04-23T01:11:13.709Z,0.00
2018-04-23T01:12:13.900Z,0.00
2018-04-23T01:13:14.089Z,0.00
2018-04-23T01:14:14.275Z,0.00
2018-04-23T01:15:14.469Z,0.00
2018-04-23T01:16:14.658Z,0.00
2018-04-23T01:17:14.847Z,0.00
2018-04-23T01:18:15.036Z,0.00
2018-04-23T01:19:15.225Z,0.00
2018-04-23T01:20:15.415Z,0.00
2018-04-23T01:21:15.606Z,0.00
2018-04-23T01:22:15.793Z,0.00
2018-04-23T01:23:15.983Z,0.00
2018-04-23T01:24:16.171Z,0.00
2018-04-23T01:25:16.362Z,0.00
2018-04-23T01:26:16.551Z,0.00
2018-04-23T01:27:16.741Z,0.00
2018-04-23T01:28:16.932Z,0.00
2018-04-23T01:29:17.114Z,0.00
2018-04-23T01:30:17.302Z,0.00
2018-04-23T01:31:17.497Z,0.00
2018-04-23T01:32:17.682Z,0.00
2018-04-23T01:33:17.870Z,0.00
2018-04-23T01:34:18.059Z,0.00
2018-04-23T01:35:18.249Z,0.00
2018-04-23T01:36:18.439Z,0.00
2018-04-23T01:37:18.626Z,0.00
2018-04-23T01:38:18.817Z,0.00
2018-04-23T01:39:19.006Z,0.00
2018-04-23T01:40:19.194Z,0.00
2018-04-23T01:41:19.382Z,0.00
2018-04-23T01:42:19.573Z,0.00
2018-04-23T01:43:19.764Z,0.00
2018-04-23T01:44:19.948Z,0.00
2018-04-23T01:45:20.149Z,0.00
2018-04-23T01:46:20.329Z,0.00
2018-04-23T01:47:20.517Z,0.00
2018-04-23T01:48:20.707Z,0.00
2018-04-23T01:49:20.906Z,0.00
2018-04-23T01:50:21.088Z,0.00
2018-04-23T01:51:21.273Z,0.00
2018-04-23T01:52:21.466Z,0.00
2018-04-23T01:53:21.661Z,0.00
2018-04-23T01:54:21.841Z,0.00
2018-04-23T01:55:22.030Z,0.00
2018-04-23T01:56:22.219Z,0.00
2018-04-23T01:57:22.409Z,0.00
2018-04-23T01:58:22.597Z,0.00
2018-04-23T01:59:22.786Z,0.00
2018-04-23T02:00:22.977Z,0.00
2018-04-23T02:01:23.168Z,0.00
2018-04-23T02:02:23.355Z,0.00
2018-04-23T02:03:23.545Z,0.00
2018-04-23T02:04:23.732Z,0.00
2018-04-23T02:05:23.922Z,0.00
2018-04-23T02:06:24.112Z,0.00
2018-04-23T02:07:24.302Z,0.00
2018-04-23T02:08:24.493Z,0.00
2018-04-23T02:09:24.682Z,0.00
2018-04-23T02:10:24.876Z,0.00
2018-04-23T02:11:25.062Z,0.00
2018-04-23T02:12:25.247Z,0.00
2018-04-23T02:13:25.435Z,0.00
2018-04-23T02:14:25.655Z,0.00
2018-04-23T02:15:25.816Z,0.00
2018-04-23T02:16:26.006Z,0.00
2018-04-23T02:17:26.196Z,0.00
2018-04-23T02:18:26.389Z,0.00
2018-04-23T02:19:26.575Z,0.00
2018-04-23T02:20:26.765Z,0.00
2018-04-23T02:21:26.955Z,0.00
2018-04-23T02:22:27.145Z,0.00
2018-04-23T02:23:27.331Z,0.00
2018-04-23T02:24:27.524Z,0.00
2018-04-23T02:25:27.711Z,0.00
2018-04-23T02:26:27.900Z,0.00
2018-04-23T02:27:28.091Z,0.00
2018-04-23T02:28:28.278Z,0.00
2018-04-23T02:29:28.466Z,0.00
2018-04-23T02:30:28.656Z,0.00
2018-04-23T02:31:28.852Z,0.00
2018-04-23T02:32:29.037Z,0.00
2018-04-23T02:33:29.227Z,0.00
2018-04-23T02:34:29.417Z,0.00
2018-04-23T02:35:29.603Z,0.00
2018-04-23T02:36:29.794Z,0.00
2018-04-23T02:37:29.984Z,0.00
2018-04-23T02:38:30.173Z,0.00
2018-04-23T02:39:30.361Z,0.00
2018-04-23T02:40:30.550Z,0.00
2018-04-23T02:41:30.742Z,0.00
2018-04-23T02:42:30.927Z,0.00
2018-04-23T02:43:31.117Z,0.00
2018-04-23T02:44:31.309Z,0.00
2018-04-23T02:45:31.497Z,0.00
2018-04-23T02:46:31.687Z,0.00
2018-04-23T02:47:31.878Z,0.00
2018-04-23T02:48:32.067Z,0.00
2018-04-23T02:49:32.255Z,0.00
2018-04-23T02:50:32.447Z,0.00
2018-04-23T02:51:32.647Z,0.00
2018-04-23T02:52:32.828Z,0.00
2018-04-23T02:53:33.018Z,0.00
2018-04-23T02:54:33.204Z,0.00
2018-04-23T02:55:33.394Z,0.00
2018-04-23T02:56:33.580Z,0.00
2018-04-23T02:57:33.778Z,0.00
2018-04-23T02:58:33.965Z,0.00
2018-04-23T02:59:34.153Z,0.00
2018-04-23T03:00:34.342Z,0.00
2018-04-23T03:01:34.532Z,0.00
2018-04-23T03:02:34.767Z,0.00
2018-04-23T03:03:34.914Z,0.00
2018-04-23T03:04:35.108Z,0.00
2018-04-23T03:05:35.300Z,0.00
2018-04-23T03:06:35.481Z,0.00
2018-04-23T03:07:35.675Z,0.00
2018-04-23T03:08:35.860Z,0.00
2018-04-23T03:09:36.052Z,0.00
2018-04-23T03:10:36.240Z,0.00
2018-04-23T03:11:36.432Z,0.00
2018-04-23T03:12:36.620Z,0.00
2018-04-23T03:13:36.810Z,0.00
2018-04-23T03:14:37.000Z,0.00
2018-04-23T03:15:37.191Z,0.00
2018-04-23T03:16:37.379Z,0.00
2018-04-23T03:17:37.568Z,0.00
2018-04-23T03:18:37.758Z,0.00
2018-04-23T03:19:37.948Z,0.00
2018-04-23T03:20:38.139Z,0.00
2018-04-23T03:21:38.327Z,0.00
2018-04-23T03:22:38.520Z,0.00
2018-04-23T03:23:38.712Z,0.00
2018-04-23T03:24:38.899Z,0.00
2018-04-23T03:25:39.087Z,0.00
2018-04-23T03:26:39.276Z,0.00
2018-04-23T03:27:39.467Z,0.00
2018-04-23T03:28:39.657Z,0.00
2018-04-23T03:29:39.847Z,0.00
2018-04-23T03:30:40.039Z,0.00
2018-04-23T03:31:40.227Z,0.00
2018-04-23T03:32:40.417Z,0.00
2018-04-23T03:33:40.605Z,0.00
2018-04-23T03:34:40.794Z,0.00
2018-04-23T03:35:40.985Z,0.00
2018-04-23T03:36:41.173Z,0.00
2018-04-23T03:37:41.361Z,0.00
2018-04-23T03:38:41.551Z,0.00
2018-04-23T03:39:41.742Z,0.00
2018-04-23T03:40:41.930Z,0.00
2018-04-23T03:41:42.124Z,0.00
2018-04-23T03:42:42.311Z,0.00
2018-04-23T03:43:42.502Z,0.00
2018-04-23T03:44:42.690Z,0.00
2018-04-23T03:45:42.879Z,0.00
2018-04-23T03:46:43.075Z,0.00
2018-04-23T03:47:43.260Z,0.00
2018-04-23T03:48:43.448Z,0.00
2018-04-23T03:49:43.637Z,0.00
2018-04-23T03:50:43.825Z,0.00
2018-04-23T03:51:44.015Z,0.00
2018-04-23T03:52:44.204Z,0.00
2018-04-23T03:53:44.397Z,0.00
2018-04-23T03:54:44.581Z,0.00
2018-04-23T03:55:44.772Z,0.00
2018-04-23T03:56:44.959Z,0.00
2018-04-23T03:57:45.199Z,0.00
2018-04-23T03:58:45.338Z,0.00
2018-04-23T03:59:45.526Z,0.00
2018-04-23T04:00:45.714Z,0.00
2018-04-23T04:01:45.905Z,0.00
2018-04-23T04:02:46.104Z,0.00
2018-04-23T04:03:46.285Z,0.00
2018-04-23T04:04:46.474Z,0.00
2018-04-23T04:05:46.667Z,0.00
2018-04-23T04:06:46.852Z,0.00
2018-04-23T04:07:47.042Z,0.00
2018-04-23T04:08:47.237Z,0.00
2018-04-23T04:09:47.422Z,0.00
2018-04-23T04:10:47.612Z,0.00
2018-04-23T04:11:47.801Z,0.00
2018-04-23T04:12:47.990Z,0.00
2018-04-23T04:13:48.189Z,0.00
2018-04-23T04:14:48.369Z,5.63
2018-04-23T04:15:48.560Z,5.63
2018-04-23T04:16:48.773Z,5.63
2018-04-23T04:17:48.940Z,5.63
2018-04-23T04:18:49.128Z,5.63
2018-04-23T04:19:49.316Z,11.25
2018-04-23T04:20:49.505Z,11.25
2018-04-23T04:21:49.695Z,11.25
2018-04-23T04:22:49.886Z,11.25
2018-04-23T04:23:50.076Z,11.25
2018-04-23T04:24:50.266Z,11.25
2018-04-23T04:25:50.455Z,11.25
2018-04-23T04:26:50.646Z,16.88
2018-04-23T04:27:50.834Z,16.88
2018-04-23T04:28:51.024Z,22.50
2018-04-23T04:29:51.214Z,22.50
2018-04-23T04:30:51.404Z,22.50
2018-04-23T04:31:51.594Z,22.50
2018-04-23T04:32:51.781Z,22.50
2018-04-23T04:33:51.972Z,22.50
2018-04-23T04:34:52.162Z,22.50
2018-04-23T04:35:52.350Z,22.50
2018-04-23T04:36:52.541Z,22.50
2018-04-23T04:37:52.731Z,22.50
2018-04-23T04:38:52.919Z,22.50
2018-04-23T04:39:53.111Z,22.50
2018-04-23T04:40:53.299Z,22.50
2018-04-23T04:41:53.491Z,22.50
2018-04-23T04:42:53.680Z,28.13
2018-04-23T04:43:53.889Z,28.13
2018-04-23T04:44:54.058Z,28.13
2018-04-23T04:45:54.249Z,33.75
2018-04-23T04:46:54.444Z,33.75
2018-04-23T04:47:54.632Z,39.38
2018-04-23T04:48:54.823Z,39.38
2018-04-23T04:49:55.011Z,45.00
2018-04-23T04:50:55.201Z,45.00
2018-04-23T04:51:55.393Z,50.63
2018-04-23T04:52:55.582Z,56.25
2018-04-23T04:53:55.771Z,56.25
2018-04-23T04:54:55.961Z,56.25
2018-04-23T04:55:56.151Z,56.25
2018-04-23T04:56:56.348Z,56.25
2018-04-23T04:57:56.531Z,61.88
2018-04-23T04:58:56.724Z,61.88
2018-04-23T04:59:56.915Z,67.50
2018-04-23T05:00:57.108Z,73.13
2018-04-23T05:01:57.294Z,78.75
2018-04-23T05:02:57.481Z,78.75
2018-04-23T05:03:57.673Z,78.75
2018-04-23T05:04:57.865Z,78.75
2018-04-23T05:05:58.109Z,78.75
2018-04-23T05:06:58.273Z,73.13
2018-04-23T05:07:58.432Z,67.50
2018-04-23T05:08:58.623Z,67.50
2018-04-23T05:09:58.813Z,67.50
2018-04-23T05:10:59.003Z,67.50
2018-04-23T05:11:59.192Z,78.75
2018-04-23T05:12:59.384Z,78.75
2018-04-23T05:13:59.575Z,67.50
2018-04-23T05:14:59.762Z,78.75
2018-04-23T05:15:59.954Z,78.75
2018-04-23T05:17:00.145Z,84.38
2018-04-23T05:18:00.333Z,84.38
2018-04-23T05:19:00.524Z,84.38
2018-04-23T05:20:00.714Z,90.00
2018-04-23T05:21:00.903Z,90.00
2018-04-23T05:22:01.096Z,84.38
2018-04-23T05:23:01.288Z,84.38
2018-04-23T05:24:01.476Z,90.00
2018-04-23T05:25:01.666Z,90.00
2018-04-23T05:26:01.856Z,84.38
2018-04-23T05:27:02.046Z,78.75
2018-04-23T05:28:02.237Z,73.13
2018-04-23T05:29:02.427Z,73.13
2018-04-23T05:30:02.653Z,67.50
2018-04-23T05:31:02.809Z,67.50
2018-04-23T05:32:02.997Z,73.13
2018-04-23T05:33:03.187Z,73.13
2018-04-23T05:34:03.378Z,78.75
2018-04-23T05:35:03.568Z,84.38
2018-04-23T05:36:03.764Z,84.38
2018-04-23T05:37:03.949Z,78.75
2018-04-23T05:38:04.139Z,73.13
2018-04-23T05:39:04.329Z,67.50
2018-04-23T05:40:04.518Z,67.50
2018-04-23T05:41:04.724Z,67.50
2018-04-23T05:42:04.898Z,67.50
2018-04-23T05:43:05.139Z,67.50
2018-04-23T05:44:05.285Z,67.50
2018-04-23T05:45:05.467Z,67.50
2018-04-23T05:46:05.658Z,67.50
2018-04-23T05:47:05.847Z,67.50
2018-04-23T05:48:06.036Z,67.50
2018-04-23T05:49:06.225Z,67.50
2018-04-23T05:50:06.418Z,67.50
2018-04-23T05:51:06.607Z,73.13
2018-04-23T05:52:06.798Z,73.13
2018-04-23T05:53:06.990Z,78.75
2018-04-23T05:54:07.179Z,84.38
2018-04-23T05:55:07.369Z,90.00
2018-04-23T05:56:07.560Z,84.38
2018-04-23T05:57:07.750Z,84.38
2018-04-23T05:58:07.943Z,84.38
2018-04-23T05:59:08.135Z,84.38
2018-04-23T06:00:08.324Z,84.38
2018-04-23T06:01:08.514Z,78.75
2018-04-23T06:02:08.702Z,78.75
2018-04-23T06:03:08.905Z,78.75
2018-04-23T06:04:09.085Z,73.13
2018-04-23T06:05:09.288Z,67.50
2018-04-23T06:06:09.467Z,67.50
2018-04-23T06:07:09.656Z,67.50
2018-04-23T06:08:09.846Z,67.50
2018-04-23T06:09:10.039Z,61.88
2018-04-23T06:10:10.227Z,56.25
2018-04-23T06:11:10.419Z,56.25
2018-04-23T06:12:10.611Z,61.88
2018-04-23T06:13:10.803Z,61.88
2018-04-23T06:14:10.994Z,61.88
2018-04-23T06:15:11.182Z,61.88
2018-04-23T06:16:11.371Z,56.25
2018-04-23T06:17:11.563Z,56.25
2018-04-23T06:18:11.757Z,56.25
2018-04-23T06:19:11.943Z,50.63
2018-04-23T06:20:12.133Z,50.63
2018-04-23T06:21:12.323Z,56.25
2018-04-23T06:22:12.513Z,56.25
2018-04-23T06:23:12.702Z,56.25
2018-04-23T06:24:12.892Z,56.25
2018-04-23T06:25:13.083Z,56.25
2018-04-23T06:26:13.277Z,56.25
2018-04-23T06:27:13.467Z,56.25
2018-04-23T06:28:13.710Z,56.25
2018-04-23T06:29:13.842Z,56.25
2018-04-23T06:30:14.033Z,56.25
2018-04-23T06:31:14.228Z,56.25
2018-04-23T06:32:14.414Z,56.25
2018-04-23T06:33:14.604Z,56.25
2018-04-23T06:34:14.799Z,56.25
2018-04-23T06:35:14.984Z,56.25
2018-04-23T06:36:15.173Z,56.25
2018-04-23T06:37:15.364Z,61.88
2018-04-23T06:38:15.554Z,61.88
2018-04-23T06:39:15.744Z,61.88
2018-04-23T06:40:15.962Z,61.88
2018-04-23T06:41:16.125Z,61.88
2018-04-23T06:42:16.312Z,61.88
2018-04-23T06:43:16.503Z,67.50
2018-04-23T06:44:16.694Z,67.50
2018-04-23T06:45:16.886Z,67.50
2018-04-23T06:46:17.077Z,73.13
2018-04-23T06:47:17.265Z,78.75
2018-04-23T06:48:17.454Z,90.00
2018-04-23T06:49:17.645Z,106.88
2018-04-23T06:50:17.835Z,129.38
2018-04-23T06:51:18.025Z,146.25
2018-04-23T06:52:18.218Z,168.75
2018-04-23T06:53:18.408Z,180.00
2018-04-23T06:54:18.597Z,185.63
2018-04-23T06:55:18.789Z,185.63
2018-04-23T06:56:18.980Z,191.25
2018-04-23T06:57:19.176Z,191.25
2018-04-23T06:58:19.365Z,202.50
2018-04-23T06:59:19.558Z,213.75
2018-04-23T07:00:19.749Z,225.00
2018-04-23T07:01:19.939Z,236.25
2018-04-23T07:02:20.126Z,247.50
2018-04-23T07:03:20.322Z,253.13
2018-04-23T07:04:20.511Z,258.75
2018-04-23T07:05:20.699Z,264.38
2018-04-23T07:06:20.891Z,270.00
2018-04-23T07:07:21.085Z,281.25
2018-04-23T07:08:21.275Z,286.88
2018-04-23T07:09:21.457Z,298.13
2018-04-23T07:10:21.641Z,303.75
2018-04-23T07:11:21.824Z,320.63
2018-04-23T07:12:22.014Z,337.50
2018-04-23T07:13:22.207Z,360.00
2018-04-23T07:14:22.398Z,388.13
2018-04-23T07:15:22.591Z,399.38
2018-04-23T07:16:22.783Z,416.25
2018-04-23T07:17:22.975Z,444.38
2018-04-23T07:18:23.161Z,472.50
2018-04-23T07:19:23.355Z,489.38
2018-04-23T07:20:23.548Z,466.88
2018-04-23T07:21:23.739Z,455.63
2018-04-23T07:22:23.932Z,478.13
2018-04-23T07:23:24.124Z,523.13
2018-04-23T07:24:24.316Z,596.25
2018-04-23T07:25:24.508Z,669.38
2018-04-23T07:26:24.700Z,742.50
2018-04-23T07:27:24.894Z,765.00
2018-04-23T07:28:25.088Z,770.63
2018-04-23T07:29:25.280Z,838.13
2018-04-23T07:30:25.472Z,939.38
2018-04-23T07:31:25.664Z,1006.88
2018-04-23T07:32:25.857Z,945.00
2018-04-23T07:33:26.050Z,922.50
2018-04-23T07:34:26.245Z,838.13
2018-04-23T07:35:26.436Z,759.38
2018-04-23T07:36:26.629Z,742.50
2018-04-23T07:37:26.821Z,714.38
2018-04-23T07:38:27.015Z,697.50
2018-04-23T07:39:27.213Z,691.88
2018-04-23T07:40:27.404Z,725.63
2018-04-23T07:41:27.599Z,736.88
2018-04-23T07:42:27.794Z,714.38
2018-04-23T07:43:27.986Z,646.88
2018-04-23T07:44:28.181Z,596.25
2018-04-23T07:45:28.373Z,568.13
2018-04-23T07:46:28.566Z,540.00
2018-04-23T07:47:28.759Z,528.75
2018-04-23T07:48:28.953Z,506.25
2018-04-23T07:49:29.148Z,483.75
2018-04-23T07:50:29.341Z,478.13
2018-04-23T07:51:29.534Z,483.75
2018-04-23T07:52:29.728Z,495.00
2018-04-23T07:53:29.922Z,517.50
2018-04-23T07:54:30.115Z,528.75
2018-04-23T07:55:30.310Z,523.13
2018-04-23T07:56:30.505Z,506.25
2018-04-23T07:57:30.698Z,500.63
2018-04-23T07:58:30.895Z,489.38
2018-04-23T07:59:31.090Z,511.88
2018-04-23T08:00:31.284Z,540.00
2018-04-23T08:01:31.478Z,568.13
2018-04-23T08:02:31.673Z,585.00
2018-04-23T08:03:31.867Z,585.00
2018-04-23T08:04:32.065Z,573.75
2018-04-23T08:05:32.255Z,568.13
2018-04-23T08:06:32.454Z,545.63
2018-04-23T08:07:32.648Z,528.75
2018-04-23T08:08:32.840Z,528.75
2018-04-23T08:09:33.038Z,517.50
2018-04-23T08:10:33.227Z,500.63
2018-04-23T08:11:33.423Z,483.75
2018-04-23T08:12:33.619Z,489.38
2018-04-23T08:13:33.814Z,495.00
2018-04-23T08:14:34.006Z,483.75
2018-04-23T08:15:34.206Z,466.88
2018-04-23T08:16:34.401Z,450.00
2018-04-23T08:17:34.590Z,427.50
2018-04-23T08:18:34.787Z,399.38
2018-04-23T08:19:34.980Z,376.88
2018-04-23T08:20:35.180Z,360.00
2018-04-23T08:21:35.369Z,354.38
2018-04-23T08:22:35.562Z,348.75
2018-04-23T08:23:35.756Z,343.13
2018-04-23T08:24:35.955Z,337.50
2018-04-23T08:25:36.146Z,326.25
2018-04-23T08:26:36.340Z,320.63
2018-04-23T08:27:36.532Z,315.00
2018-04-23T08:28:36.727Z,309.38
2018-04-23T08:29:36.923Z,309.38
2018-04-23T08:30:37.118Z,309.38
2018-04-23T08:31:37.311Z,298.13
2018-04-23T08:32:37.506Z,281.25
2018-04-23T08:33:37.700Z,275.63
2018-04-23T08:34:37.893Z,270.00
2018-04-23T08:35:38.084Z,275.63
2018-04-23T08:36:38.277Z,292.50
2018-04-23T08:37:38.473Z,320.63
2018-04-23T08:38:38.668Z,354.38
2018-04-23T08:39:38.861Z,388.13
2018-04-23T08:40:39.053Z,427.50
2018-04-23T08:41:39.253Z,466.88
2018-04-23T08:42:39.442Z,534.38
2018-04-23T08:43:39.637Z,596.25
2018-04-23T08:44:39.839Z,714.38
2018-04-23T08:45:40.022Z,669.38
2018-04-23T08:46:40.218Z,613.13
2018-04-23T08:47:40.410Z,624.38
2018-04-23T08:48:40.604Z,613.13
2018-04-23T08:49:40.798Z,607.50
2018-04-23T08:50:40.992Z,596.25
2018-04-23T08:51:41.184Z,596.25
2018-04-23T08:52:41.381Z,607.50
2018-04-23T08:53:41.575Z,613.13
2018-04-23T08:54:41.768Z,601.88
2018-04-23T08:55:41.998Z,590.63
2018-04-23T08:56:42.158Z,596.25
2018-04-23T08:57:42.353Z,607.50
2018-04-23T08:58:42.546Z,585.00
2018-04-23T08:59:42.742Z,551.25
2018-04-23T09:00:42.935Z,517.50
2018-04-23T09:01:43.132Z,495.00
2018-04-23T09:02:43.325Z,489.38
2018-04-23T09:03:43.517Z,495.00
2018-04-23T09:04:43.712Z,500.63
2018-04-23T09:05:43.907Z,517.50
2018-04-23T09:06:44.102Z,534.38
2018-04-23T09:07:44.296Z,556.88
2018-04-23T09:08:44.490Z,613.13
2018-04-23T09:09:44.685Z,652.50
2018-04-23T09:10:44.876Z,725.63
2018-04-23T09:11:45.080Z,798.75
2018-04-23T09:12:45.266Z,860.63
2018-04-23T09:13:45.460Z,956.25
2018-04-23T09:14:45.654Z,950.63
2018-04-23T09:15:45.847Z,815.63
2018-04-23T09:16:46.043Z,810.00
2018-04-23T09:17:46.245Z,945.00
2018-04-23T09:18:46.432Z,1198.13
2018-04-23T09:19:46.627Z,1006.88
2018-04-23T09:20:46.823Z,1001.25
2018-04-23T09:21:47.017Z,1080.00
2018-04-23T09:22:47.214Z,1096.88
2018-04-23T09:23:47.409Z,1108.13
2018-04-23T09:24:47.608Z,1366.88
2018-04-23T09:25:47.798Z,1305.00
2018-04-23T09:26:47.994Z,1170.00
2018-04-23T09:27:48.189Z,1288.13
2018-04-23T09:28:48.385Z,1181.25
2018-04-23T09:29:48.580Z,1096.88
2018-04-23T09:30:48.776Z,1091.25
2018-04-23T09:31:48.972Z,1096.88
2018-04-23T09:32:49.167Z,1018.13
2018-04-23T09:33:49.363Z,984.38
2018-04-23T09:34:49.560Z,939.38
2018-04-23T09:35:49.757Z,905.63
2018-04-23T09:36:49.954Z,922.50
2018-04-23T09:37:50.149Z,1586.25
2018-04-23T09:38:50.347Z,1805.63
2018-04-23T09:39:50.544Z,2210.63
2018-04-23T09:40:50.740Z,1963.13
2018-04-23T09:41:50.940Z,1355.63
2018-04-23T09:42:51.135Z,1046.25
2018-04-23T09:43:51.335Z,1023.75
2018-04-23T09:44:51.530Z,1023.75
2018-04-23T09:45:51.728Z,967.50
2018-04-23T09:46:51.924Z,900.00
2018-04-23T09:47:52.121Z,956.25
2018-04-23T09:48:52.319Z,1029.38
2018-04-23T09:49:52.517Z,1051.88
2018-04-23T09:50:52.713Z,1051.88
2018-04-23T09:51:52.914Z,1006.88
2018-04-23T09:52:53.111Z,945.00
2018-04-23T09:53:53.313Z,990.00
2018-04-23T09:54:53.511Z,1001.25
2018-04-23T09:55:53.711Z,1023.75
2018-04-23T09:56:53.906Z,1006.88
2018-04-23T09:57:54.105Z,990.00
2018-04-23T09:58:54.303Z,888.75
2018-04-23T09:59:54.501Z,793.13
2018-04-23T10:00:54.697Z,877.50
2018-04-23T10:01:54.896Z,933.75
2018-04-23T10:02:55.093Z,961.88
2018-04-23T10:03:55.292Z,911.25
2018-04-23T10:04:55.490Z,973.13
2018-04-23T10:05:55.692Z,950.63
2018-04-23T10:06:55.887Z,838.13
2018-04-23T10:07:56.085Z,765.00
2018-04-23T10:08:56.284Z,838.13
2018-04-23T10:09:56.483Z,933.75
2018-04-23T10:10:56.682Z,956.25
2018-04-23T10:11:56.886Z,838.13
2018-04-23T10:12:57.080Z,1029.38
2018-04-23T10:13:57.279Z,1006.88
2018-04-23T10:14:57.478Z,1046.25
2018-04-23T10:15:57.676Z,990.00
2018-04-23T10:16:57.875Z,1001.25
2018-04-23T10:17:58.075Z,916.88
2018-04-23T10:18:58.273Z,973.13
2018-04-23T10:19:58.472Z,871.88
2018-04-23T10:20:58.677Z,832.50
2018-04-23T10:21:58.870Z,849.38
2018-04-23T10:22:59.071Z,776.25
2018-04-23T10:23:59.271Z,860.63
2018-04-23T10:24:59.468Z,720.00
2018-04-23T10:25:59.666Z,725.63
2018-04-23T10:26:59.865Z,787.50
2018-04-23T10:28:00.066Z,922.50
2018-04-23T10:29:00.262Z,894.38
2018-04-23T10:30:00.463Z,849.38
2018-04-23T10:31:00.662Z,866.25
2018-04-23T10:32:00.861Z,922.50
2018-04-23T10:33:01.058Z,978.75
2018-04-23T10:34:01.257Z,973.13
2018-04-23T10:35:01.456Z,961.88
2018-04-23T10:36:01.658Z,810.00
2018-04-23T10:37:01.856Z,731.25
2018-04-23T10:38:02.053Z,714.38
2018-04-23T10:39:02.251Z,731.25
2018-04-23T10:40:02.454Z,832.50
2018-04-23T10:41:02.648Z,753.75
2018-04-23T10:42:02.846Z,888.75
2018-04-23T10:43:03.075Z,742.50
2018-04-23T10:44:03.247Z,697.50
2018-04-23T10:45:03.446Z,916.88
2018-04-23T10:46:03.647Z,787.50
2018-04-23T10:47:03.845Z,1288.13
2018-04-23T10:48:04.045Z,1271.25
2018-04-23T10:49:04.243Z,860.63
2018-04-23T10:50:04.441Z,793.13
2018-04-23T10:51:04.678Z,843.75
2018-04-23T10:52:04.841Z,849.38
2018-04-23T10:53:05.040Z,697.50
2018-04-23T10:54:05.240Z,624.38
2018-04-23T10:55:05.439Z,601.88
2018-04-23T10:56:05.636Z,556.88
2018-04-23T10:57:05.836Z,517.50
2018-04-23T10:58:06.036Z,500.63
2018-04-23T10:59:06.236Z,500.63
2018-04-23T11:00:06.435Z,556.88
2018-04-23T11:01:06.633Z,669.38
2018-04-23T11:02:06.833Z,984.38
2018-04-23T11:03:07.031Z,765.00
2018-04-23T11:04:07.229Z,691.88
2018-04-23T11:05:07.427Z,652.50
2018-04-23T11:06:07.624Z,607.50
2018-04-23T11:07:07.823Z,528.75
2018-04-23T11:08:08.019Z,461.25
2018-04-23T11:09:08.218Z,438.75
2018-04-23T11:10:08.425Z,433.13
2018-04-23T11:11:08.617Z,421.88
2018-04-23T11:12:08.816Z,405.00
2018-04-23T11:13:09.012Z,365.63
2018-04-23T11:14:09.210Z,343.13
2018-04-23T11:15:09.406Z,331.88
2018-04-23T11:16:09.607Z,331.88
2018-04-23T11:17:09.804Z,343.13
2018-04-23T11:18:10.001Z,371.25
2018-04-23T11:19:10.197Z,416.25
2018-04-23T11:20:10.394Z,450.00
2018-04-23T11:21:10.592Z,455.63
2018-04-23T11:22:10.788Z,455.63
2018-04-23T11:23:10.987Z,455.63
2018-04-23T11:24:11.182Z,410.63
2018-04-23T11:25:11.379Z,371.25
2018-04-23T11:26:11.575Z,382.50
2018-04-23T11:27:11.773Z,421.88
2018-04-23T11:28:11.965Z,466.88
2018-04-23T11:29:12.160Z,472.50
2018-04-23T11:30:12.355Z,461.25
2018-04-23T11:31:12.552Z,427.50
2018-04-23T11:32:12.749Z,410.63
2018-04-23T11:33:12.948Z,393.75
2018-04-23T11:34:13.144Z,371.25
2018-04-23T11:35:13.342Z,343.13
2018-04-23T11:36:13.536Z,309.38
2018-04-23T11:37:13.730Z,286.88
2018-04-23T11:38:13.926Z,286.88
2018-04-23T11:39:14.120Z,382.50
2018-04-23T11:40:14.317Z,511.88
2018-04-23T11:41:14.509Z,551.25
2018-04-23T11:42:14.705Z,562.50
2018-04-23T11:43:14.900Z,573.75
2018-04-23T11:44:15.095Z,562.50
2018-04-23T11:45:15.291Z,556.88
2018-04-23T11:46:15.487Z,556.88
2018-04-23T11:47:15.680Z,556.88
2018-04-23T11:48:15.877Z,573.75
2018-04-23T11:49:16.070Z,590.63
2018-04-23T11:50:16.266Z,641.25
2018-04-23T11:51:16.467Z,641.25
2018-04-23T11:52:16.655Z,613.13
2018-04-23T11:53:16.851Z,596.25
2018-04-23T11:54:17.046Z,590.63
2018-04-23T11:55:17.241Z,618.75
2018-04-23T11:56:17.433Z,618.75
2018-04-23T11:57:17.631Z,618.75
2018-04-23T11:58:17.824Z,691.88
2018-04-23T11:59:18.063Z,725.63
2018-04-23T12:00:18.215Z,776.25
2018-04-23T12:01:18.411Z,765.00
2018-04-23T12:02:18.609Z,759.38
2018-04-23T12:03:18.803Z,748.13
2018-04-23T12:04:19.001Z,731.25
2018-04-23T12:05:19.195Z,708.75
2018-04-23T12:06:19.391Z,675.00
2018-04-23T12:07:19.589Z,658.13
2018-04-23T12:08:19.781Z,641.25
2018-04-23T12:09:19.991Z,635.63
2018-04-23T12:10:20.179Z,646.88
2018-04-23T12:11:20.381Z,652.50
2018-04-23T12:12:20.581Z,635.63
2018-04-23T12:13:20.745Z,613.13
2018-04-23T12:14:20.942Z,585.00
2018-04-23T12:15:21.136Z,630.00
2018-04-23T12:16:21.333Z,635.63
2018-04-23T12:17:21.541Z,652.50
2018-04-23T12:18:21.713Z,652.50
2018-04-23T12:19:21.904Z,641.25
2018-04-23T12:20:22.098Z,646.88
2018-04-23T12:21:22.295Z,658.13
2018-04-23T12:22:22.492Z,669.38
2018-04-23T12:23:22.687Z,641.25
2018-04-23T12:24:22.883Z,523.13
2018-04-23T12:25:23.082Z,511.88
2018-04-23T12:26:23.279Z,495.00
2018-04-23T12:27:23.474Z,483.75
2018-04-23T12:28:23.673Z,495.00
2018-04-23T12:29:23.868Z,500.63
2018-04-23T12:30:24.063Z,517.50
2018-04-23T12:31:24.270Z,523.13
2018-04-23T12:32:24.455Z,579.38
2018-04-23T12:33:24.655Z,551.25
2018-04-23T12:34:24.848Z,556.88
2018-04-23T12:35:25.043Z,590.63
2018-04-23T12:36:25.237Z,585.00
2018-04-23T12:37:25.433Z,573.75
2018-04-23T12:38:25.628Z,483.75
2018-04-23T12:39:25.821Z,455.63
2018-04-23T12:40:26.020Z,478.13
2018-04-23T12:41:26.213Z,438.75
2018-04-23T12:42:26.409Z,489.38
2018-04-23T12:43:26.606Z,489.38
2018-04-23T12:44:26.800Z,489.38
2018-04-23T12:45:26.993Z,500.63
2018-04-23T12:46:27.187Z,450.00
2018-04-23T12:47:27.387Z,506.25
2018-04-23T12:48:27.587Z,517.50
2018-04-23T12:49:27.774Z,545.63
2018-04-23T12:50:27.969Z,517.50